Conover, North Carolina
Current Conditions -  °F | °C
As of 1:36 PM on Sunday 23 Nov 2014 (Local Time) from KHKY Reporting Station
Moderate Rain Moderate Rain  
Wind Chill: 44°   Ceiling: 500
Heat Index: 44°   Visibility: 1.2mi
Dew Point: 42°   Wind: 3mph
Humidity: 93%   Direction: 340°NNW
Pressure: 30.04"   Gusts: NA
Location:  35.71°N, 81.22°W
Report Text: KHKY 231836Z 34003KT 1 1/4SM RA BR OVC005 07/06 A3004 RMK AO2 CIG 003V009 P0004 T00670056
Loading
Personal Weather Stations






























Interactive Weather Map New forecast layout! Learn more

10-Day Weather Forecast

Advertisements
Track Severe Weather on mobile